LTAY/DNZ METAR and TAF weather

Enter ICAO airport designator
Station Type Date Time Source
LTAY METAR 2019/09/21 20:50 UTC NOAA

LTAY 212050Z 06016KT CAVOK 15/03 Q1020


Station Type Date Time Source
LTAY Decoded METAR 2019/09/21 20:50 UTC NOAA

Cardak, Turkey (LTAY) 37-47N 029-42E
Sep 21, 2019 - 04:50 PM EDT / 2019.09.21 2050 UTC
Wind: from the ENE (060 degrees) at 18 MPH (16 KT):0
Visibility: greater than 7 mile(s):0
Temperature: 59 F (15 C)
Dew Point: 37 F (3 C)
Relative Humidity: 44%
Pressure (altimeter): 30.12 in. Hg (1020 hPa)
ob: LTAY 212050Z 06016KT CAVOK 15/03 Q1020
cycle: 21

Station Type Date Time Source
LTAY TAF UTC NOAA

Error!

Example: see airport list